OLYMPUS DIGITAL CAMERA

This is a comprehensive list of finishers since the race was extended 1.2 miles in 2002 to make it a full 50k. Use the quick-links below to jump to a specific gender, year, or age bracket. Use the search field below to explore the data in your own way, or to find results by name.

M F

’16 ’15 ’14 ’13 ’12 ’11 ’10 ’09 ’08 ’07 ’06 ’05 ’04 ’03 ’02
20-29 30-39 40-49 50-59 60-69 70-79 80+

Record Holders Zombierunner Rookie Award Winners
Search:
Sort by:
Run YearFirst NameLast NameGenderAge BracketFinish TimePlaceAward
2010 Leor Pantilat M 20-29 04:16:28 1 Course Record, Category Record
2016 Scott Trummer M 20-29 04:24:10 1 ZombieRunner Rookie Award
2009 Leor Pantilat M 20-29 04:29:45 1
2011 Leor Pantilat M 20-29 04:31:20 1
2004 Lon Freeman M 20-29 04:51:31 1
2009 Caitlin Smith F 20-29 05:04:36 5 Course Record, Category Record
2012 Marc Laveson M 20-29 05:12:03 3
2004 Trevor Nelson M 20-29 05:13:27 3
2015 Yew Ferrara M 20-29 05:16:38 2
2003 Tim Putney M 20-29 05:22:40 3
2002 Tim Putney M 20-29 05:28:04 6
2006 Eric Chitwood M 20-29 05:28:24 6
2004 Erik Dube M 20-29 05:29:23 7
2009 Sean Lang M 20-29 05:30:22 13
2002 Luke Wayman M 20-29 05:40:43 13
2002 Lauren Jefferson F 20-29 05:45:44 17
2013 Shahid Ali M 20-29 05:47:25 9
2016 Justin Galbraith M 20-29 05:50:49 13
2010 Hunter Maclean M 20-29 05:53:03 26
2002 Christian Bonner M 20-29 05:56:16 21
2006 Oliver Chan M 20-29 05:57:31 17
2003 Mark Thoren M 20-29 05:59:44 22
2002 Judson Sickler M 20-29 06:00:05 22
2009 Joseph Ginanni M 20-29 06:00:26 27
2013 James Gerson M 20-29 06:03:07 20
2007 Ryan Commons M 20-29 06:05:05 29
2014 James Gerson M 20-29 06:06:21 34
2008 Ben Crew M 20-29 06:07:11 13
2014 Fuchyi Yang M 20-29 06:08:59 36
2004 Marc Dube M 20-29 06:11:28 19
2008 Oliver Chan M 20-29 06:12:21 17
2011 Adam Boone M 20-29 06:13:04 43
2010 Matthew Salvitti M 20-29 06:14:09 43
2012 Cassandra Dufek F 20-29 06:15:05 30
2012 Stephen Wassather M 20-29 06:15:08 31
2002 Mark Thoren M 20-29 06:16:32 35
2010 Shahid Ali M 20-29 06:18:32 49
2010 Ted Thomas M 20-29 06:19:50 54
2007 Chris Kreutzer M 20-29 06:21:39 36
2015 Justin Galbraith M 20-29 06:21:57 11
2012 Shahid Ali M 20-29 06:22:20 37
2002 Brent Rechtfertig M 20-29 06:23:23 38
2002 Nicole Carabba F 20-29 06:30:35 48
2015 Jeff Quinn M 20-29 06:30:35 14
2003 Marc Dube M 20-29 06:33:52 41
2011 Calvin Wong M 20-29 06:34:29 53
2010 Scott Isaac M 20-29 06:35:15 73
2006 Adrian Jue M 20-29 06:36:52 44
2016 William Nguyen M 20-29 06:38:43 31
2010 Jarrett Tong M 20-29 06:38:55 75
2005 Trevor Nelson M 20-29 06:38:58 29
2010 Jamie Walker F 20-29 06:41:05 79
2005 Kristen Dymmel F 20-29 06:47:56 35
2011 Brad Payton M 20-29 06:50:14 77
2010 Adrian Jue M 20-29 06:53:54 89
2007 Janet Thomson F 20-29 06:54:03 64
2015 William Nguyen M 20-29 06:54:26 20
2011 Jacklyn Gates F 20-29 06:58:25 92
2012 Pa Panyeinn Phyo F 20-29 07:02:07 73
2015 Jessica Wacker F 20-29 07:14:21 25
2002 Mark Taylor M 20-29 07:22:37 80
2012 Harris Mason M 20-29 07:24:37 86
2003 Albert Rodriguez M 20-29 07:25:10 65
2007 Cheryl Bosse F 20-29 07:28:53 84
2013 Tracie Nelson F 20-29 07:31:21 84 ZombieRunner Rookie Award
2008 Bradley Niess M 20-29 07:36:08 52
2010 Jeff Huizinga M 20-29 07:38:52 126
2016 Zachary Wallace M 20-29 07:39:05 72
2003 Nike Krasopoulos F 20-29 07:41:41 71
2012 Charles Boettger M 20-29 07:44:34 98
2012 Susan Heinselman F 20-29 07:48:33 101
2014 Jeffrey Freund M 20-29 07:50:23 116
2016 Yehudah Rice M 20-29 07:53:41 82
2016 Leah Galbraith F 20-29 07:54:22 84
2008 Adrian Jue M 20-29 07:55:02 71
2013 Steven Carrick M 20-29 07:57:17 108
2012 Erik Brockman M 20-29 07:58:41 109
2012 Jacklyn Gates F 20-29 08:02:30 112
2011 Cameron Burkholder F 20-29 08:04:45 138
2004 Nike Krasopoulos F 20-29 08:15:19 83
2012 Rida Chow F 20-29 08:21:00 127
2012 Ryan Anderson M 20-29 08:21:20 129
2014 Steven Vaughn-Behrens M 20-29 08:25:55 136
2016 My Nguyen F 20-29 08:35:51 103
2015 Stefan Fiandeiro M <20 08:37:01 52
2011 Nishad Singh M 20-29 08:39:03 165
2013 Alissa Bell F 20-29 08:47:52 132
2013 Ethan Dreyfuss M 20-29 08:47:53 133
2012 Yonatan McCarter-ribakoff M 20-29 08:49:28 153
2011 Rachael Mallory F 20-29 08:52:23 174
2013 Jeffrey Freund M 20-29 08:56:12 140
2006 Lisa Felder F 20-29 09:18:23 108
2012 Heidi Lang F 20-29 09:19:34 181
2005 Flora Krivak-Tetley F 20-29 09:27:36 109
2016 Heather Figuers F 20-29 09:34:30
2005 Jennifer Twist F 20-29 09:34:56 110
2016 Sarah Neal F 20-29 09:47:43 128
2012 Michael McWaid M 20-29 09:50:30 199
2012 Simha McCarter-ribakoff M 20-29 09:56:52 202
2012 Rachel Gray F 20-29 10:12:15 205
2008 Emily Damon F 20-29 10:24:16 115
2008 Saksiri Tanphaichitr M 20-29 10:27:28 117
2010 Michael McWaid M 20-29 10:39:34 178
2012 Clifford Fonner M 20-29 10:51:41 213
2011 Michael McWaid M 20-29 11:22:49 195